Airfield :
LOGIN :

Register | Disclaimer

   EN    FR    IT 

 










Legend :    VFR   Marginal VFR   IFR   Intensive IFR   Very Intensive IFR
Visi :
Ceiling :
>= 8 km
>= 3000ft
5 to 8 km
1000 to 3000 ft
1500m to 5 km
500 to 1000 ft
800 to 1500m
200 to 500 ft
< 800m
< 200 ft
Symbols :   Thunderstorms  Fog  Heavy snow  Heavy precipitations  Wind > 20 kt
SIGMETs :     Misc.  Thunderstorms  Icing  Turbulence  Mountain Waves  Volcanic Ashes







- Airport Elevation : 325 ft
- IATA code : POX
- Download approach charts


LFPT - Pontoise

CURRENT METAR :
  • 210400Z AUTO 22015KT 9999 RA BKN022/// BKN034/// BKN052/// ///TCU 17/15 Q1007

EXPIRED METARs :
  • 210330Z AUTO 22017KT 9999 SCT024/// BKN029/// BKN130/// ///TCU 18/14 Q1007
  • 210300Z AUTO 22017KT 9999 FEW026 SCT032 BKN140 18/14 Q1008
  • 210230Z AUTO 22016KT CAVOK 18/14 Q1008
  • 210200Z AUTO 21012KT CAVOK 18/14 Q1007
  • 210130Z AUTO 21008KT CAVOK 18/13 Q1008

TAF N/A
ATIS : +33 1 30 30 52 08
No reported NOTAMs for that airfield.
1 SIGMET reported for the Paris FIR (LFFF) :
 
Severe turbulence
LFFF SIGMET 1 VALID 210100/210500 LFPW
LFFF PARIS FIR/UIR SEV TURB FCST NW OF LINE N4845 W00015 - N5100 E00245 SFC/FL060 MOV E 20KT NC=



MET'MAP, your aeronautical weather chart ! - Copyright ORBIFLY December 2007 - Disclaimer

ORBIFLY MET'MAP TEAM :

Programming & Development : Alexandra Zaïnal
Concept & Development : Baudouin d'Aumeries
Co-Development & Prog : Marc-Olivier Méhu
Technical & hardware support : Manuel Goepfert

Contact : metmap@orbifly.com




SOURCES & CREDITS :

   NOAA